sensor_id;sensor_type;location;lat;lon;timestamp;temperature;humidity
43561;DHT22;32305;46.410;17.394;2024-03-23T00:52:36;22.70;37.70
43561;DHT22;32305;46.410;17.394;2024-03-23T00:55:02;22.70;37.70
43561;DHT22;32305;46.410;17.394;2024-03-23T00:57:28;22.70;37.70
43561;DHT22;32305;46.410;17.394;2024-03-23T00:59:54;22.70;37.70
43561;DHT22;32305;46.410;17.394;2024-03-23T01:02:20;22.70;37.70
43561;DHT22;32305;46.410;17.394;2024-03-23T01:04:46;22.70;37.70
43561;DHT22;32305;46.410;17.394;2024-03-23T01:07:12;22.70;37.70
43561;DHT22;32305;46.410;17.394;2024-03-23T01:09:37;22.70;37.70
43561;DHT22;32305;46.410;17.394;2024-03-23T01:12:04;22.70;37.70
43561;DHT22;32305;46.410;17.394;2024-03-23T01:14:30;22.70;37.70
43561;DHT22;32305;46.410;17.394;2024-03-23T01:16:56;22.70;37.80
43561;DHT22;32305;46.410;17.394;2024-03-23T01:19:22;22.70;37.80
43561;DHT22;32305;46.410;17.394;2024-03-23T01:21:48;22.70;37.80
43561;DHT22;32305;46.410;17.394;2024-03-23T01:24:15;22.70;37.80
43561;DHT22;32305;46.410;17.394;2024-03-23T01:26:41;22.70;37.80
43561;DHT22;32305;46.410;17.394;2024-03-23T01:29:07;22.70;37.80
43561;DHT22;32305;46.410;17.394;2024-03-23T01:31:32;22.70;37.80
43561;DHT22;32305;46.410;17.394;2024-03-23T01:33:58;22.70;37.90
43561;DHT22;32305;46.410;17.394;2024-03-23T01:36:24;22.70;37.90
43561;DHT22;32305;46.410;17.394;2024-03-23T01:38:50;22.60;37.80
43561;DHT22;32305;46.410;17.394;2024-03-23T01:41:17;22.60;37.90
43561;DHT22;32305;46.410;17.394;2024-03-23T01:43:43;22.60;37.90
43561;DHT22;32305;46.410;17.394;2024-03-23T01:46:09;22.60;37.90
43561;DHT22;32305;46.410;17.394;2024-03-23T01:48:35;22.60;37.90
43561;DHT22;32305;46.410;17.394;2024-03-23T01:51:00;22.60;37.90
43561;DHT22;32305;46.410;17.394;2024-03-23T01:53:26;22.60;37.90
43561;DHT22;32305;46.410;17.394;2024-03-23T01:55:52;22.60;37.90
43561;DHT22;32305;46.410;17.394;2024-03-23T01:58:19;22.60;37.90
43561;DHT22;32305;46.410;17.394;2024-03-23T02:00:44;22.60;37.90
43561;DHT22;32305;46.410;17.394;2024-03-23T02:03:21;22.60;37.90
43561;DHT22;32305;46.410;17.394;2024-03-23T02:05:47;22.60;37.90
43561;DHT22;32305;46.410;17.394;2024-03-23T02:08:13;22.70;37.90
43561;DHT22;32305;46.410;17.394;2024-03-23T02:10:40;22.70;37.90
43561;DHT22;32305;46.410;17.394;2024-03-23T02:13:06;22.60;37.80
43561;DHT22;32305;46.410;17.394;2024-03-23T02:15:32;22.60;37.80
43561;DHT22;32305;46.410;17.394;2024-03-23T02:17:58;22.60;37.80
43561;DHT22;32305;46.410;17.394;2024-03-23T02:20:23;22.70;37.90
43561;DHT22;32305;46.410;17.394;2024-03-23T02:22:55;22.60;37.80
43561;DHT22;32305;46.410;17.394;2024-03-23T02:25:21;22.60;37.80
43561;DHT22;32305;46.410;17.394;2024-03-23T02:27:47;22.60;37.80
43561;DHT22;32305;46.410;17.394;2024-03-23T02:30:13;22.60;37.90
43561;DHT22;32305;46.410;17.394;2024-03-23T02:32:39;22.60;37.90
43561;DHT22;32305;46.410;17.394;2024-03-23T02:35:05;22.60;37.90
43561;DHT22;32305;46.410;17.394;2024-03-23T02:37:30;22.60;37.90
43561;DHT22;32305;46.410;17.394;2024-03-23T02:39:58;22.60;37.90
43561;DHT22;32305;46.410;17.394;2024-03-23T02:42:24;22.60;37.90
43561;DHT22;32305;46.410;17.394;2024-03-23T02:44:49;22.60;37.90
43561;DHT22;32305;46.410;17.394;2024-03-23T02:47:15;22.60;37.90
43561;DHT22;32305;46.410;17.394;2024-03-23T02:49:41;22.50;37.90
43561;DHT22;32305;46.410;17.394;2024-03-23T02:52:07;22.60;38.50
43561;DHT22;32305;46.410;17.394;2024-03-23T02:54:33;22.50;37.90
43561;DHT22;32305;46.410;17.394;2024-03-23T02:56:59;22.60;38.00
43561;DHT22;32305;46.410;17.394;2024-03-23T02:59:24;22.60;38.00
43561;DHT22;32305;46.410;17.394;2024-03-23T03:01:50;22.50;37.90
43561;DHT22;32305;46.410;17.394;2024-03-23T03:04:16;22.60;38.00
43561;DHT22;32305;46.410;17.394;2024-03-23T03:06:42;22.60;38.00
43561;DHT22;32305;46.410;17.394;2024-03-23T03:09:08;22.60;38.00
43561;DHT22;32305;46.410;17.394;2024-03-23T03:11:34;22.60;38.00
43561;DHT22;32305;46.410;17.394;2024-03-23T03:14:00;22.60;38.00
43561;DHT22;32305;46.410;17.394;2024-03-23T03:16:27;22.60;37.90
43561;DHT22;32305;46.410;17.394;2024-03-23T03:18:52;22.60;37.90
43561;DHT22;32305;46.410;17.394;2024-03-23T03:21:18;22.60;37.90
43561;DHT22;32305;46.410;17.394;2024-03-23T03:23:44;22.60;37.90
43561;DHT22;32305;46.410;17.394;2024-03-23T03:26:10;22.60;37.90
43561;DHT22;32305;46.410;17.394;2024-03-23T03:28:36;22.60;37.90
43561;DHT22;32305;46.410;17.394;2024-03-23T03:31:02;22.60;38.00
43561;DHT22;32305;46.410;17.394;2024-03-23T03:33:28;22.60;38.00
43561;DHT22;32305;46.410;17.394;2024-03-23T03:35:54;22.60;38.00
43561;DHT22;32305;46.410;17.394;2024-03-23T03:38:20;22.60;38.00
43561;DHT22;32305;46.410;17.394;2024-03-23T03:40:46;22.60;38.00
43561;DHT22;32305;46.410;17.394;2024-03-23T03:43:12;22.60;38.00
43561;DHT22;32305;46.410;17.394;2024-03-23T03:45:37;22.60;38.00
43561;DHT22;32305;46.410;17.394;2024-03-23T03:48:03;22.50;37.90
43561;DHT22;32305;46.410;17.394;2024-03-23T03:50:30;22.50;37.90
43561;DHT22;32305;46.410;17.394;2024-03-23T03:52:56;22.50;38.00
43561;DHT22;32305;46.410;17.394;2024-03-23T03:55:22;22.50;38.00
43561;DHT22;32305;46.410;17.394;2024-03-23T03:57:48;22.50;38.00
43561;DHT22;32305;46.410;17.394;2024-03-23T04:00:14;22.50;38.00
43561;DHT22;32305;46.410;17.394;2024-03-23T04:02:40;22.50;38.00
43561;DHT22;32305;46.410;17.394;2024-03-23T04:05:06;22.50;38.00
43561;DHT22;32305;46.410;17.394;2024-03-23T04:07:32;22.50;38.00
43561;DHT22;32305;46.410;17.394;2024-03-23T04:09:57;22.60;38.00
43561;DHT22;32305;46.410;17.394;2024-03-23T04:12:23;22.60;38.00
43561;DHT22;32305;46.410;17.394;2024-03-23T04:14:49;22.60;38.10
43561;DHT22;32305;46.410;17.394;2024-03-23T04:17:15;22.60;38.60
43561;DHT22;32305;46.410;17.394;2024-03-23T04:19:41;22.60;38.10
43561;DHT22;32305;46.410;17.394;2024-03-23T04:22:08;22.50;38.00
43561;DHT22;32305;46.410;17.394;2024-03-23T04:24:34;22.60;38.00
43561;DHT22;32305;46.410;17.394;2024-03-23T04:27:00;22.60;38.00
43561;DHT22;32305;46.410;17.394;2024-03-23T04:29:26;22.60;38.00
43561;DHT22;32305;46.410;17.394;2024-03-23T04:31:52;22.60;38.50
43561;DHT22;32305;46.410;17.394;2024-03-23T04:34:18;22.60;37.90
43561;DHT22;32305;46.410;17.394;2024-03-23T04:36:44;22.60;37.90
43561;DHT22;32305;46.410;17.394;2024-03-23T04:39:10;22.50;37.80
43561;DHT22;32305;46.410;17.394;2024-03-23T04:41:35;22.60;37.80
43561;DHT22;32305;46.410;17.394;2024-03-23T04:44:01;22.60;37.60
43561;DHT22;32305;46.410;17.394;2024-03-23T04:46:27;22.60;37.40
43561;DHT22;32305;46.410;17.394;2024-03-23T04:48:53;22.60;37.30
43561;DHT22;32305;46.410;17.394;2024-03-23T04:51:22;22.70;37.30
43561;DHT22;32305;46.410;17.394;2024-03-23T04:53:48;22.70;37.20
43561;DHT22;32305;46.410;17.394;2024-03-23T04:56:15;22.70;37.10
43561;DHT22;32305;46.410;17.394;2024-03-23T04:58:41;22.70;37.10
43561;DHT22;32305;46.410;17.394;2024-03-23T05:01:07;22.70;37.10
43561;DHT22;32305;46.410;17.394;2024-03-23T05:03:32;22.70;37.10
43561;DHT22;32305;46.410;17.394;2024-03-23T05:05:58;22.70;37.10
43561;DHT22;32305;46.410;17.394;2024-03-23T05:08:24;22.70;37.00
43561;DHT22;32305;46.410;17.394;2024-03-23T05:10:50;22.80;36.90
43561;DHT22;32305;46.410;17.394;2024-03-23T05:13:16;22.80;37.50
43561;DHT22;32305;46.410;17.394;2024-03-23T05:15:41;22.80;36.90
43561;DHT22;32305;46.410;17.394;2024-03-23T05:18:07;22.80;36.90
43561;DHT22;32305;46.410;17.394;2024-03-23T05:20:33;22.80;36.90
43561;DHT22;32305;46.410;17.394;2024-03-23T05:22:59;22.70;36.90
43561;DHT22;32305;46.410;17.394;2024-03-23T05:25:25;22.70;36.90
43561;DHT22;32305;46.410;17.394;2024-03-23T05:27:51;22.80;36.90
43561;DHT22;32305;46.410;17.394;2024-03-23T05:30:17;22.80;36.90
43561;DHT22;32305;46.410;17.394;2024-03-23T05:32:43;22.80;36.80
43561;DHT22;32305;46.410;17.394;2024-03-23T05:35:09;22.90;36.80
43561;DHT22;32305;46.410;17.394;2024-03-23T05:37:35;22.90;36.80
43561;DHT22;32305;46.410;17.394;2024-03-23T05:40:01;22.90;36.70
43561;DHT22;32305;46.410;17.394;2024-03-23T05:42:29;22.90;36.70
43561;DHT22;32305;46.410;17.394;2024-03-23T05:44:55;23.00;36.70
43561;DHT22;32305;46.410;17.394;2024-03-23T05:47:20;23.00;36.60
43561;DHT22;32305;46.410;17.394;2024-03-23T05:49:46;23.00;36.60
43561;DHT22;32305;46.410;17.394;2024-03-23T05:52:12;23.10;36.50
43561;DHT22;32305;46.410;17.394;2024-03-23T05:54:38;23.00;36.50
43561;DHT22;32305;46.410;17.394;2024-03-23T05:57:04;23.10;36.50
43561;DHT22;32305;46.410;17.394;2024-03-23T05:59:33;23.10;36.40
43561;DHT22;32305;46.410;17.394;2024-03-23T06:01:59;23.10;36.40
43561;DHT22;32305;46.410;17.394;2024-03-23T06:04:25;23.10;36.40
43561;DHT22;32305;46.410;17.394;2024-03-23T06:06:51;23.20;36.30
43561;DHT22;32305;46.410;17.394;2024-03-23T06:09:18;23.20;36.30
43561;DHT22;32305;46.410;17.394;2024-03-23T06:11:45;23.20;36.20
43561;DHT22;32305;46.410;17.394;2024-03-23T06:14:10;23.30;36.80
43561;DHT22;32305;46.410;17.394;2024-03-23T06:16:36;23.30;36.20
43561;DHT22;32305;46.410;17.394;2024-03-23T06:19:02;23.30;36.10
43561;DHT22;32305;46.410;17.394;2024-03-23T06:21:30;23.30;36.10
43561;DHT22;32305;46.410;17.394;2024-03-23T06:23:55;23.30;36.00
43561;DHT22;32305;46.410;17.394;2024-03-23T06:26:21;23.30;36.00
43561;DHT22;32305;46.410;17.394;2024-03-23T06:28:47;23.40;36.00
43561;DHT22;32305;46.410;17.394;2024-03-23T06:31:13;23.40;36.00
43561;DHT22;32305;46.410;17.394;2024-03-23T06:33:39;23.40;35.90
43561;DHT22;32305;46.410;17.394;2024-03-23T06:36:10;23.40;35.90
43561;DHT22;32305;46.410;17.394;2024-03-23T06:38:37;23.40;35.90
43561;DHT22;32305;46.410;17.394;2024-03-23T06:41:04;23.40;35.90
43561;DHT22;32305;46.410;17.394;2024-03-23T06:43:29;23.40;35.80
43561;DHT22;32305;46.410;17.394;2024-03-23T06:45:55;23.40;35.80
43561;DHT22;32305;46.410;17.394;2024-03-23T06:48:21;23.40;35.80
43561;DHT22;32305;46.410;17.394;2024-03-23T06:50:47;23.50;35.80
43561;DHT22;32305;46.410;17.394;2024-03-23T06:53:13;23.50;35.80
43561;DHT22;32305;46.410;17.394;2024-03-23T06:55:40;23.50;35.70
43561;DHT22;32305;46.410;17.394;2024-03-23T06:58:06;23.50;35.70
43561;DHT22;32305;46.410;17.394;2024-03-23T07:00:32;23.60;35.70
43561;DHT22;32305;46.410;17.394;2024-03-23T07:02:59;23.60;35.60
43561;DHT22;32305;46.410;17.394;2024-03-23T07:05:25;23.60;35.50
43561;DHT22;32305;46.410;17.394;2024-03-23T07:07:51;23.60;35.50
43561;DHT22;32305;46.410;17.394;2024-03-23T07:10:19;23.70;35.50
43561;DHT22;32305;46.410;17.394;2024-03-23T07:12:45;23.70;35.40
43561;DHT22;32305;46.410;17.394;2024-03-23T07:15:11;23.70;35.40
43561;DHT22;32305;46.410;17.394;2024-03-23T07:17:37;23.70;35.30
43561;DHT22;32305;46.410;17.394;2024-03-23T07:20:03;23.70;35.30
43561;DHT22;32305;46.410;17.394;2024-03-23T07:22:32;23.80;35.30
43561;DHT22;32305;46.410;17.394;2024-03-23T07:25:01;23.80;35.20
43561;DHT22;32305;46.410;17.394;2024-03-23T07:27:27;23.80;35.20
43561;DHT22;32305;46.410;17.394;2024-03-23T07:29:53;23.80;35.20
43561;DHT22;32305;46.410;17.394;2024-03-23T07:32:20;23.90;35.10
43561;DHT22;32305;46.410;17.394;2024-03-23T07:34:46;23.90;35.10
43561;DHT22;32305;46.410;17.394;2024-03-23T07:37:12;23.90;35.00
43561;DHT22;32305;46.410;17.394;2024-03-23T07:39:41;23.90;35.00
43561;DHT22;32305;46.410;17.394;2024-03-23T07:42:07;23.90;34.90
43561;DHT22;32305;46.410;17.394;2024-03-23T07:44:33;24.00;35.00
43561;DHT22;32305;46.410;17.394;2024-03-23T07:47:02;24.00;35.00
43561;DHT22;32305;46.410;17.394;2024-03-23T07:49:28;24.00;34.90
43561;DHT22;32305;46.410;17.394;2024-03-23T07:51:53;24.10;34.90
43561;DHT22;32305;46.410;17.394;2024-03-23T07:54:19;24.10;34.90
43561;DHT22;32305;46.410;17.394;2024-03-23T07:56:45;24.10;34.80
43561;DHT22;32305;46.410;17.394;2024-03-23T07:59:11;24.10;34.70
43561;DHT22;32305;46.410;17.394;2024-03-23T08:01:37;24.20;34.70
43561;DHT22;32305;46.410;17.394;2024-03-23T08:04:03;24.20;34.70
43561;DHT22;32305;46.410;17.394;2024-03-23T08:06:29;24.20;34.60
43561;DHT22;32305;46.410;17.394;2024-03-23T08:08:55;24.20;34.60
43561;DHT22;32305;46.410;17.394;2024-03-23T08:11:30;24.30;34.60
43561;DHT22;32305;46.410;17.394;2024-03-23T08:13:57;24.30;34.50
43561;DHT22;32305;46.410;17.394;2024-03-23T08:16:23;24.30;34.50
43561;DHT22;32305;46.410;17.394;2024-03-23T08:18:52;24.30;34.40
43561;DHT22;32305;46.410;17.394;2024-03-23T08:21:18;24.40;34.40
43561;DHT22;32305;46.410;17.394;2024-03-23T08:23:44;24.50;34.30
43561;DHT22;32305;46.410;17.394;2024-03-23T08:26:14;24.50;34.20
43561;DHT22;32305;46.410;17.394;2024-03-23T08:28:41;24.50;34.20
43561;DHT22;32305;46.410;17.394;2024-03-23T08:31:08;24.60;34.20
43561;DHT22;32305;46.410;17.394;2024-03-23T08:33:35;24.60;34.60
43561;DHT22;32305;46.410;17.394;2024-03-23T08:36:02;24.70;34.10
43561;DHT22;32305;46.410;17.394;2024-03-23T08:38:28;24.70;33.90
43561;DHT22;32305;46.410;17.394;2024-03-23T08:41:01;24.80;33.90
43561;DHT22;32305;46.410;17.394;2024-03-23T08:43:28;24.80;33.80
43561;DHT22;32305;46.410;17.394;2024-03-23T08:46:05;24.90;33.80
43561;DHT22;32305;46.410;17.394;2024-03-23T08:48:36;24.90;33.70
43561;DHT22;32305;46.410;17.394;2024-03-23T08:51:02;25.00;33.70
43561;DHT22;32305;46.410;17.394;2024-03-23T08:53:29;25.00;33.60
43561;DHT22;32305;46.410;17.394;2024-03-23T08:55:56;25.00;33.50
43561;DHT22;32305;46.410;17.394;2024-03-23T08:58:23;25.10;33.50
43561;DHT22;32305;46.410;17.394;2024-03-23T09:00:50;25.10;33.40
43561;DHT22;32305;46.410;17.394;2024-03-23T09:03:16;25.10;33.40
43561;DHT22;32305;46.410;17.394;2024-03-23T09:05:42;25.10;33.40
43561;DHT22;32305;46.410;17.394;2024-03-23T09:08:07;25.20;33.40
43561;DHT22;32305;46.410;17.394;2024-03-23T09:10:40;25.20;33.90
43561;DHT22;32305;46.410;17.394;2024-03-23T09:13:07;25.20;33.30
43561;DHT22;32305;46.410;17.394;2024-03-23T09:15:34;25.20;33.20
43561;DHT22;32305;46.410;17.394;2024-03-23T09:18:00;25.30;33.20
43561;DHT22;32305;46.410;17.394;2024-03-23T09:20:26;25.30;33.10
43561;DHT22;32305;46.410;17.394;2024-03-23T09:22:52;25.30;33.10
43561;DHT22;32305;46.410;17.394;2024-03-23T09:25:17;25.30;33.00
43561;DHT22;32305;46.410;17.394;2024-03-23T09:27:45;25.40;33.00
43561;DHT22;32305;46.410;17.394;2024-03-23T09:30:11;25.40;33.00
43561;DHT22;32305;46.410;17.394;2024-03-23T09:32:37;25.40;33.00
43561;DHT22;32305;46.410;17.394;2024-03-23T09:35:04;25.40;32.90
43561;DHT22;32305;46.410;17.394;2024-03-23T09:37:30;25.50;32.90
43561;DHT22;32305;46.410;17.394;2024-03-23T09:39:56;25.50;32.80
43561;DHT22;32305;46.410;17.394;2024-03-23T09:42:22;25.60;32.90
43561;DHT22;32305;46.410;17.394;2024-03-23T09:44:48;25.60;32.80
43561;DHT22;32305;46.410;17.394;2024-03-23T09:47:15;25.60;32.70
43561;DHT22;32305;46.410;17.394;2024-03-23T09:49:40;25.60;32.60
43561;DHT22;32305;46.410;17.394;2024-03-23T09:52:07;25.70;32.60
43561;DHT22;32305;46.410;17.394;2024-03-23T09:54:33;25.70;33.10
43561;DHT22;32305;46.410;17.394;2024-03-23T09:56:58;25.70;32.50
43561;DHT22;32305;46.410;17.394;2024-03-23T09:59:24;25.70;32.50
43561;DHT22;32305;46.410;17.394;2024-03-23T10:01:52;25.70;32.40
43561;DHT22;32305;46.410;17.394;2024-03-23T10:07:10;25.80;32.40
43561;DHT22;32305;46.410;17.394;2024-03-23T10:09:36;25.80;32.30
43561;DHT22;32305;46.410;17.394;2024-03-23T10:12:09;25.80;32.30
43561;DHT22;32305;46.410;17.394;2024-03-23T10:14:35;25.80;32.30
43561;DHT22;32305;46.410;17.394;2024-03-23T10:17:17;25.80;32.30
43561;DHT22;32305;46.410;17.394;2024-03-23T10:19:46;25.80;32.20
43561;DHT22;32305;46.410;17.394;2024-03-23T10:22:20;25.80;32.20
43561;DHT22;32305;46.410;17.394;2024-03-23T10:24:46;25.80;32.20
43561;DHT22;32305;46.410;17.394;2024-03-23T10:27:15;25.80;32.20
43561;DHT22;32305;46.410;17.394;2024-03-23T10:29:43;25.80;32.20
43561;DHT22;32305;46.410;17.394;2024-03-23T10:32:10;25.80;32.20
43561;DHT22;32305;46.410;17.394;2024-03-23T10:34:37;25.80;32.20
43561;DHT22;32305;46.410;17.394;2024-03-23T10:37:03;25.80;32.20
43561;DHT22;32305;46.410;17.394;2024-03-23T10:39:33;25.80;32.10
43561;DHT22;32305;46.410;17.394;2024-03-23T10:42:03;25.80;32.10
43561;DHT22;32305;46.410;17.394;2024-03-23T10:44:29;25.80;32.10
43561;DHT22;32305;46.410;17.394;2024-03-23T10:47:00;25.80;32.10
43561;DHT22;32305;46.410;17.394;2024-03-23T10:49:30;25.80;32.00
43561;DHT22;32305;46.410;17.394;2024-03-23T10:51:58;25.80;32.00
43561;DHT22;32305;46.410;17.394;2024-03-23T10:54:25;25.80;32.50
43561;DHT22;32305;46.410;17.394;2024-03-23T10:56:53;25.90;32.00
43561;DHT22;32305;46.410;17.394;2024-03-23T10:59:20;25.90;31.90
43561;DHT22;32305;46.410;17.394;2024-03-23T11:01:54;25.90;31.90
43561;DHT22;32305;46.410;17.394;2024-03-23T11:04:30;25.90;31.90
43561;DHT22;32305;46.410;17.394;2024-03-23T11:06:57;26.00;31.80
43561;DHT22;32305;46.410;17.394;2024-03-23T11:09:39;26.00;31.80
43561;DHT22;32305;46.410;17.394;2024-03-23T11:14:56;26.10;31.70
43561;DHT22;32305;46.410;17.394;2024-03-23T11:17:26;26.10;31.60
43561;DHT22;32305;46.410;17.394;2024-03-23T11:19:59;26.10;31.60
43561;DHT22;32305;46.410;17.394;2024-03-23T11:22:38;26.10;31.50
43561;DHT22;32305;46.410;17.394;2024-03-23T11:25:15;26.20;31.50
43561;DHT22;32305;46.410;17.394;2024-03-23T11:30:11;26.20;31.40
43561;DHT22;32305;46.410;17.394;2024-03-23T11:32:37;26.30;31.40
43561;DHT22;32305;46.410;17.394;2024-03-23T11:35:05;26.30;31.40
43561;DHT22;32305;46.410;17.394;2024-03-23T11:37:31;26.40;31.40
43561;DHT22;32305;46.410;17.394;2024-03-23T11:39:57;26.40;31.40
43561;DHT22;32305;46.410;17.394;2024-03-23T11:42:23;26.40;31.30
43561;DHT22;32305;46.410;17.394;2024-03-23T11:44:49;26.40;31.30
43561;DHT22;32305;46.410;17.394;2024-03-23T11:47:15;26.40;31.30
43561;DHT22;32305;46.410;17.394;2024-03-23T11:49:40;26.40;31.20
43561;DHT22;32305;46.410;17.394;2024-03-23T11:52:06;26.40;31.20
43561;DHT22;32305;46.410;17.394;2024-03-23T11:54:33;26.40;31.10
43561;DHT22;32305;46.410;17.394;2024-03-23T11:57:00;26.40;31.10
43561;DHT22;32305;46.410;17.394;2024-03-23T11:59:35;26.40;31.10
43561;DHT22;32305;46.410;17.394;2024-03-23T12:02:05;26.50;31.10
43561;DHT22;32305;46.410;17.394;2024-03-23T12:04:31;26.50;31.00
43561;DHT22;32305;46.410;17.394;2024-03-23T12:10:02;26.50;31.00
43561;DHT22;32305;46.410;17.394;2024-03-23T12:12:28;26.50;31.00
43561;DHT22;32305;46.410;17.394;2024-03-23T12:15:01;26.50;31.00
43561;DHT22;32305;46.410;17.394;2024-03-23T12:17:27;26.50;30.90
43561;DHT22;32305;46.410;17.394;2024-03-23T12:19:53;26.50;30.90
43561;DHT22;32305;46.410;17.394;2024-03-23T12:22:22;26.60;30.90
43561;DHT22;32305;46.410;17.394;2024-03-23T12:24:48;26.50;30.90
43561;DHT22;32305;46.410;17.394;2024-03-23T12:27:14;26.50;30.90
43561;DHT22;32305;46.410;17.394;2024-03-23T12:29:40;26.50;30.90
43561;DHT22;32305;46.410;17.394;2024-03-23T12:32:08;26.50;30.90
43561;DHT22;32305;46.410;17.394;2024-03-23T12:34:33;26.50;30.90
43561;DHT22;32305;46.410;17.394;2024-03-23T12:36:59;26.40;30.90
43561;DHT22;32305;46.410;17.394;2024-03-23T12:39:25;26.40;30.90
43561;DHT22;32305;46.410;17.394;2024-03-23T12:41:51;26.40;31.00
43561;DHT22;32305;46.410;17.394;2024-03-23T12:44:18;26.40;31.00
43561;DHT22;32305;46.410;17.394;2024-03-23T12:46:44;26.40;31.60
43561;DHT22;32305;46.410;17.394;2024-03-23T12:49:10;26.30;31.00
43561;DHT22;32305;46.410;17.394;2024-03-23T12:51:36;26.30;31.00
43561;DHT22;32305;46.410;17.394;2024-03-23T12:54:02;26.30;31.00
43561;DHT22;32305;46.410;17.394;2024-03-23T12:56:28;26.30;31.00
43561;DHT22;32305;46.410;17.394;2024-03-23T12:58:54;26.30;31.00
43561;DHT22;32305;46.410;17.394;2024-03-23T13:01:25;26.30;31.00
43561;DHT22;32305;46.410;17.394;2024-03-23T13:03:51;26.20;30.90
43561;DHT22;32305;46.410;17.394;2024-03-23T13:06:18;26.30;30.90
43561;DHT22;32305;46.410;17.394;2024-03-23T13:08:44;26.30;31.00
43561;DHT22;32305;46.410;17.394;2024-03-23T13:11:10;26.30;31.00
43561;DHT22;32305;46.410;17.394;2024-03-23T13:13:36;26.20;30.90
43561;DHT22;32305;46.410;17.394;2024-03-23T13:16:03;26.20;30.90
43561;DHT22;32305;46.410;17.394;2024-03-23T13:18:29;26.20;30.80
43561;DHT22;32305;46.410;17.394;2024-03-23T13:20:55;26.20;30.90
43561;DHT22;32305;46.410;17.394;2024-03-23T13:23:21;26.20;30.80
43561;DHT22;32305;46.410;17.394;2024-03-23T13:25:51;26.20;30.80
43561;DHT22;32305;46.410;17.394;2024-03-23T13:28:21;26.20;30.70
43561;DHT22;32305;46.410;17.394;2024-03-23T13:30:54;26.20;30.70
43561;DHT22;32305;46.410;17.394;2024-03-23T13:33:20;26.30;30.80
43561;DHT22;32305;46.410;17.394;2024-03-23T13:35:49;26.30;30.70
43561;DHT22;32305;46.410;17.394;2024-03-23T13:38:15;26.30;30.70
43561;DHT22;32305;46.410;17.394;2024-03-23T13:40:58;26.30;30.70
43561;DHT22;32305;46.410;17.394;2024-03-23T13:43:24;26.30;30.70
43561;DHT22;32305;46.410;17.394;2024-03-23T13:45:53;26.30;30.70
43561;DHT22;32305;46.410;17.394;2024-03-23T13:48:20;26.30;30.70
43561;DHT22;32305;46.410;17.394;2024-03-23T13:50:46;26.30;30.70
43561;DHT22;32305;46.410;17.394;2024-03-23T13:53:15;26.20;30.60
43561;DHT22;32305;46.410;17.394;2024-03-23T13:55:47;26.30;30.70
43561;DHT22;32305;46.410;17.394;2024-03-23T13:58:14;26.20;30.60
43561;DHT22;32305;46.410;17.394;2024-03-23T14:00:40;26.30;30.70
43561;DHT22;32305;46.410;17.394;2024-03-23T14:03:06;26.30;30.60
43561;DHT22;32305;46.410;17.394;2024-03-23T14:05:31;26.30;30.60
43561;DHT22;32305;46.410;17.394;2024-03-23T14:07:57;26.20;30.60
43561;DHT22;32305;46.410;17.394;2024-03-23T14:10:23;26.20;30.60
43561;DHT22;32305;46.410;17.394;2024-03-23T14:12:49;26.20;30.60
43561;DHT22;32305;46.410;17.394;2024-03-23T14:15:15;26.20;30.70
43561;DHT22;32305;46.410;17.394;2024-03-23T14:17:41;26.10;30.60
43561;DHT22;32305;46.410;17.394;2024-03-23T14:20:07;26.10;30.70
43561;DHT22;32305;46.410;17.394;2024-03-23T14:22:37;26.10;30.70
43561;DHT22;32305;46.410;17.394;2024-03-23T14:25:03;26.10;30.80
43561;DHT22;32305;46.410;17.394;2024-03-23T14:27:29;26.00;30.80
43561;DHT22;32305;46.410;17.394;2024-03-23T14:29:55;26.00;30.80
43561;DHT22;32305;46.410;17.394;2024-03-23T14:32:22;26.00;30.90
43561;DHT22;32305;46.410;17.394;2024-03-23T14:34:48;25.90;31.40
43561;DHT22;32305;46.410;17.394;2024-03-23T14:37:14;25.90;30.90
43561;DHT22;32305;46.410;17.394;2024-03-23T14:39:41;25.90;31.00
43561;DHT22;32305;46.410;17.394;2024-03-23T14:42:07;25.90;31.00
43561;DHT22;32305;46.410;17.394;2024-03-23T14:44:36;25.80;31.00
43561;DHT22;32305;46.410;17.394;2024-03-23T14:47:02;25.80;31.10
43561;DHT22;32305;46.410;17.394;2024-03-23T14:49:28;25.80;31.10
43561;DHT22;32305;46.410;17.394;2024-03-23T14:51:54;25.80;31.10
43561;DHT22;32305;46.410;17.394;2024-03-23T14:54:19;25.80;31.10
43561;DHT22;32305;46.410;17.394;2024-03-23T14:56:45;25.80;31.20
43561;DHT22;32305;46.410;17.394;2024-03-23T14:59:13;25.80;31.30
43561;DHT22;32305;46.410;17.394;2024-03-23T15:01:38;25.80;31.30
43561;DHT22;32305;46.410;17.394;2024-03-23T15:04:04;25.80;31.40
43561;DHT22;32305;46.410;17.394;2024-03-23T15:06:30;25.80;31.40
43561;DHT22;32305;46.410;17.394;2024-03-23T15:08:56;25.80;31.40
43561;DHT22;32305;46.410;17.394;2024-03-23T15:11:22;25.80;31.40
43561;DHT22;32305;46.410;17.394;2024-03-23T15:13:49;25.80;31.50
43561;DHT22;32305;46.410;17.394;2024-03-23T15:16:18;25.80;31.40
43561;DHT22;32305;46.410;17.394;2024-03-23T15:18:47;25.80;31.50
43561;DHT22;32305;46.410;17.394;2024-03-23T15:21:14;25.80;31.50
43561;DHT22;32305;46.410;17.394;2024-03-23T15:23:45;25.80;31.50
43561;DHT22;32305;46.410;17.394;2024-03-23T15:26:11;25.80;31.50
43561;DHT22;32305;46.410;17.394;2024-03-23T15:28:37;25.80;31.50
43561;DHT22;32305;46.410;17.394;2024-03-23T15:31:23;25.80;31.50
43561;DHT22;32305;46.410;17.394;2024-03-23T15:33:49;25.70;31.50
43561;DHT22;32305;46.410;17.394;2024-03-23T15:36:15;25.70;31.50
43561;DHT22;32305;46.410;17.394;2024-03-23T15:38:41;25.80;31.60
43561;DHT22;32305;46.410;17.394;2024-03-23T15:41:07;25.70;31.50
43561;DHT22;32305;46.410;17.394;2024-03-23T15:43:34;25.70;31.50
43561;DHT22;32305;46.410;17.394;2024-03-23T15:46:00;25.70;31.50
43561;DHT22;32305;46.410;17.394;2024-03-23T15:48:27;25.70;31.60
43561;DHT22;32305;46.410;17.394;2024-03-23T15:50:53;25.70;31.70
43561;DHT22;32305;46.410;17.394;2024-03-23T15:53:19;25.70;31.70
43561;DHT22;32305;46.410;17.394;2024-03-23T15:55:46;25.70;31.70
43561;DHT22;32305;46.410;17.394;2024-03-23T15:58:11;25.70;31.70
43561;DHT22;32305;46.410;17.394;2024-03-23T16:00:38;25.70;31.80
43561;DHT22;32305;46.410;17.394;2024-03-23T16:03:04;25.70;31.80
43561;DHT22;32305;46.410;17.394;2024-03-23T16:05:30;25.70;31.90
43561;DHT22;32305;46.410;17.394;2024-03-23T16:07:56;25.70;31.90
43561;DHT22;32305;46.410;17.394;2024-03-23T16:10:22;25.60;31.90
43561;DHT22;32305;46.410;17.394;2024-03-23T16:12:48;25.60;32.00
43561;DHT22;32305;46.410;17.394;2024-03-23T16:15:14;25.60;32.10